Marvin, Missouri
Current Conditions -  °F | °C
As of 12:53 PM on Thursday 30 Oct 2014 (Local Time) from KDMO Reporting Station
Clear Clear  
Wind Chill: 54°   Ceiling: Unl
Heat Index: 54°   Visibility: 10mi
Dew Point: 46°   Wind: 9mph
Humidity: 75%   Direction: 230°SW
Pressure: 30.02"   Gusts: NA
Location:  38.4499°N, 92.8168°W
Report Text: KDMO 301753Z AUTO 23008KT 10SM CLR 12/08 A3002 RMK AO2 LTG DSNT S RAE01 SLP167 P0000 60003 T01220078 10144 20072 58014
Loading
Personal Weather Stations






























Interactive Weather Map
Tropical Storm Tracking
New forecast layout! Learn more

10-Day Weather Forecast

Advertisements
Track Severe Weather on mobile